sensor_id;sensor_type;location;lat;lon;timestamp;temperature;humidity
53498;DHT22;39382;47.168;16.008;2023-05-10T00:02:07;7.50;99.90
53498;DHT22;39382;47.168;16.008;2023-05-10T00:04:33;7.50;99.90
53498;DHT22;39382;47.168;16.008;2023-05-10T00:06:58;7.50;99.90
53498;DHT22;39382;47.168;16.008;2023-05-10T00:09:24;7.50;99.90
53498;DHT22;39382;47.168;16.008;2023-05-10T00:11:50;7.50;99.90
53498;DHT22;39382;47.168;16.008;2023-05-10T00:14:16;7.40;99.90
53498;DHT22;39382;47.168;16.008;2023-05-10T00:16:41;7.30;99.90
53498;DHT22;39382;47.168;16.008;2023-05-10T00:19:07;7.30;99.90
53498;DHT22;39382;47.168;16.008;2023-05-10T00:21:33;7.20;99.90
53498;DHT22;39382;47.168;16.008;2023-05-10T00:23:59;7.20;99.90
53498;DHT22;39382;47.168;16.008;2023-05-10T00:26:25;7.20;99.90
53498;DHT22;39382;47.168;16.008;2023-05-10T00:28:50;7.10;99.90
53498;DHT22;39382;47.168;16.008;2023-05-10T00:31:16;7.10;99.90
53498;DHT22;39382;47.168;16.008;2023-05-10T00:33:42;7.10;99.90
53498;DHT22;39382;47.168;16.008;2023-05-10T00:36:07;7.10;99.90
53498;DHT22;39382;47.168;16.008;2023-05-10T00:38:33;7.00;99.90
53498;DHT22;39382;47.168;16.008;2023-05-10T00:40:59;7.10;99.90
53498;DHT22;39382;47.168;16.008;2023-05-10T00:43:25;7.10;99.90
53498;DHT22;39382;47.168;16.008;2023-05-10T00:45:51;7.00;99.90
53498;DHT22;39382;47.168;16.008;2023-05-10T00:48:16;6.90;99.90
53498;DHT22;39382;47.168;16.008;2023-05-10T00:50:42;6.90;99.90
53498;DHT22;39382;47.168;16.008;2023-05-10T00:53:08;6.90;99.90
53498;DHT22;39382;47.168;16.008;2023-05-10T00:55:34;7.00;99.90
53498;DHT22;39382;47.168;16.008;2023-05-10T00:58:00;7.00;99.90
53498;DHT22;39382;47.168;16.008;2023-05-10T01:00:27;6.90;99.90
53498;DHT22;39382;47.168;16.008;2023-05-10T01:02:53;6.90;99.90
53498;DHT22;39382;47.168;16.008;2023-05-10T01:05:19;6.90;99.90
53498;DHT22;39382;47.168;16.008;2023-05-10T01:07:45;6.80;99.90
53498;DHT22;39382;47.168;16.008;2023-05-10T01:10:10;6.80;99.90
53498;DHT22;39382;47.168;16.008;2023-05-10T01:12:40;6.80;99.90
53498;DHT22;39382;47.168;16.008;2023-05-10T01:15:10;6.70;99.90
53498;DHT22;39382;47.168;16.008;2023-05-10T01:17:38;6.60;99.90
53498;DHT22;39382;47.168;16.008;2023-05-10T01:20:05;6.60;99.90
53498;DHT22;39382;47.168;16.008;2023-05-10T01:33:30;6.50;99.90
53498;DHT22;39382;47.168;16.008;2023-05-10T01:36:13;6.40;99.90
53498;DHT22;39382;47.168;16.008;2023-05-10T01:38:50;6.40;99.90
53498;DHT22;39382;47.168;16.008;2023-05-10T01:44:06;6.40;99.90
53498;DHT22;39382;47.168;16.008;2023-05-10T01:46:36;6.40;99.90
53498;DHT22;39382;47.168;16.008;2023-05-10T01:49:25;6.30;99.90
53498;DHT22;39382;47.168;16.008;2023-05-10T01:51:54;6.30;99.90
53498;DHT22;39382;47.168;16.008;2023-05-10T01:54:22;6.40;99.90
53498;DHT22;39382;47.168;16.008;2023-05-10T01:56:55;6.40;99.90
53498;DHT22;39382;47.168;16.008;2023-05-10T01:59:21;6.40;99.90
53498;DHT22;39382;47.168;16.008;2023-05-10T02:01:48;6.30;99.90
53498;DHT22;39382;47.168;16.008;2023-05-10T02:04:17;6.20;99.90
53498;DHT22;39382;47.168;16.008;2023-05-10T02:06:45;6.20;99.90
53498;DHT22;39382;47.168;16.008;2023-05-10T02:09:13;6.20;99.90
53498;DHT22;39382;47.168;16.008;2023-05-10T02:11:41;6.20;99.90
53498;DHT22;39382;47.168;16.008;2023-05-10T02:14:09;6.10;99.90
53498;DHT22;39382;47.168;16.008;2023-05-10T02:16:38;6.10;99.90
53498;DHT22;39382;47.168;16.008;2023-05-10T02:19:05;5.90;99.90
53498;DHT22;39382;47.168;16.008;2023-05-10T02:21:32;5.90;99.90
53498;DHT22;39382;47.168;16.008;2023-05-10T02:23:59;5.90;99.90
53498;DHT22;39382;47.168;16.008;2023-05-10T02:26:27;5.90;99.90
53498;DHT22;39382;47.168;16.008;2023-05-10T02:28:53;5.80;99.90
53498;DHT22;39382;47.168;16.008;2023-05-10T02:31:21;5.90;99.90
53498;DHT22;39382;47.168;16.008;2023-05-10T02:33:48;5.90;99.90
53498;DHT22;39382;47.168;16.008;2023-05-10T02:36:15;5.90;99.90
53498;DHT22;39382;47.168;16.008;2023-05-10T02:38:42;5.90;99.90
53498;DHT22;39382;47.168;16.008;2023-05-10T02:41:09;5.80;99.90
53498;DHT22;39382;47.168;16.008;2023-05-10T02:43:37;5.80;99.90
53498;DHT22;39382;47.168;16.008;2023-05-10T02:46:04;5.70;99.90
53498;DHT22;39382;47.168;16.008;2023-05-10T02:48:30;5.80;99.90
53498;DHT22;39382;47.168;16.008;2023-05-10T02:51:00;5.70;99.90
53498;DHT22;39382;47.168;16.008;2023-05-10T02:53:31;5.70;99.90
53498;DHT22;39382;47.168;16.008;2023-05-10T02:56:05;5.60;99.90
53498;DHT22;39382;47.168;16.008;2023-05-10T02:58:33;5.60;99.90
53498;DHT22;39382;47.168;16.008;2023-05-10T03:01:00;5.70;99.90
53498;DHT22;39382;47.168;16.008;2023-05-10T03:03:25;5.70;99.90
53498;DHT22;39382;47.168;16.008;2023-05-10T03:05:51;5.70;99.90
53498;DHT22;39382;47.168;16.008;2023-05-10T03:08:21;5.70;99.90
53498;DHT22;39382;47.168;16.008;2023-05-10T03:16:14;5.60;99.90
53498;DHT22;39382;47.168;16.008;2023-05-10T03:21:49;5.70;99.90
53498;DHT22;39382;47.168;16.008;2023-05-10T03:24:16;5.70;99.90
53498;DHT22;39382;47.168;16.008;2023-05-10T03:26:44;5.70;99.90
53498;DHT22;39382;47.168;16.008;2023-05-10T03:29:12;5.70;99.90
53498;DHT22;39382;47.168;16.008;2023-05-10T03:31:38;5.60;99.90
53498;DHT22;39382;47.168;16.008;2023-05-10T03:34:04;5.60;99.90
53498;DHT22;39382;47.168;16.008;2023-05-10T03:36:30;5.60;99.90
53498;DHT22;39382;47.168;16.008;2023-05-10T03:38:55;5.60;99.90
53498;DHT22;39382;47.168;16.008;2023-05-10T03:41:21;5.60;99.90
53498;DHT22;39382;47.168;16.008;2023-05-10T03:43:47;5.60;99.90
53498;DHT22;39382;47.168;16.008;2023-05-10T03:46:12;5.50;99.90
53498;DHT22;39382;47.168;16.008;2023-05-10T03:48:38;5.60;99.90
53498;DHT22;39382;47.168;16.008;2023-05-10T03:51:05;5.60;99.90
53498;DHT22;39382;47.168;16.008;2023-05-10T03:53:30;5.70;99.90
53498;DHT22;39382;47.168;16.008;2023-05-10T03:55:56;5.80;99.90
53498;DHT22;39382;47.168;16.008;2023-05-10T03:58:21;5.90;99.90
53498;DHT22;39382;47.168;16.008;2023-05-10T04:00:47;5.90;99.90
53498;DHT22;39382;47.168;16.008;2023-05-10T04:03:13;6.00;99.90
53498;DHT22;39382;47.168;16.008;2023-05-10T04:05:39;5.90;99.90
53498;DHT22;39382;47.168;16.008;2023-05-10T04:08:05;5.90;99.90
53498;DHT22;39382;47.168;16.008;2023-05-10T04:10:31;8.00;99.90
53498;DHT22;39382;47.168;16.008;2023-05-10T04:12:56;7.50;99.90
53498;DHT22;39382;47.168;16.008;2023-05-10T04:15:22;7.10;99.90
53498;DHT22;39382;47.168;16.008;2023-05-10T04:17:48;6.70;99.90
53498;DHT22;39382;47.168;16.008;2023-05-10T04:20:14;6.60;99.90
53498;DHT22;39382;47.168;16.008;2023-05-10T04:22:40;6.40;99.90
53498;DHT22;39382;47.168;16.008;2023-05-10T04:25:06;6.30;99.90
53498;DHT22;39382;47.168;16.008;2023-05-10T04:27:32;6.30;99.90
53498;DHT22;39382;47.168;16.008;2023-05-10T04:29:58;6.40;99.90
53498;DHT22;39382;47.168;16.008;2023-05-10T04:32:23;6.50;99.90
53498;DHT22;39382;47.168;16.008;2023-05-10T04:34:49;6.50;99.90
53498;DHT22;39382;47.168;16.008;2023-05-10T04:37:16;6.50;99.90
53498;DHT22;39382;47.168;16.008;2023-05-10T04:39:42;6.60;99.90
53498;DHT22;39382;47.168;16.008;2023-05-10T04:42:08;6.60;99.90
53498;DHT22;39382;47.168;16.008;2023-05-10T04:44:34;6.70;99.90
53498;DHT22;39382;47.168;16.008;2023-05-10T04:46:59;6.70;99.90
53498;DHT22;39382;47.168;16.008;2023-05-10T04:49:25;6.70;99.90
53498;DHT22;39382;47.168;16.008;2023-05-10T04:51:51;6.80;99.90
53498;DHT22;39382;47.168;16.008;2023-05-10T04:54:16;6.80;99.90
53498;DHT22;39382;47.168;16.008;2023-05-10T04:56:42;6.90;99.90
53498;DHT22;39382;47.168;16.008;2023-05-10T04:59:07;7.00;99.90
53498;DHT22;39382;47.168;16.008;2023-05-10T05:01:33;7.10;99.90
53498;DHT22;39382;47.168;16.008;2023-05-10T05:03:59;7.20;99.90
53498;DHT22;39382;47.168;16.008;2023-05-10T05:06:24;7.20;99.90
53498;DHT22;39382;47.168;16.008;2023-05-10T05:08:50;7.30;99.90
53498;DHT22;39382;47.168;16.008;2023-05-10T05:11:19;7.50;99.90
53498;DHT22;39382;47.168;16.008;2023-05-10T05:13:46;7.70;99.90
53498;DHT22;39382;47.168;16.008;2023-05-10T05:16:12;7.80;99.90
53498;DHT22;39382;47.168;16.008;2023-05-10T05:18:37;7.90;99.90
53498;DHT22;39382;47.168;16.008;2023-05-10T05:21:03;8.00;99.90
53498;DHT22;39382;47.168;16.008;2023-05-10T05:23:28;8.10;99.90
53498;DHT22;39382;47.168;16.008;2023-05-10T05:25:54;8.20;99.90
53498;DHT22;39382;47.168;16.008;2023-05-10T05:28:20;8.20;99.90
53498;DHT22;39382;47.168;16.008;2023-05-10T05:30:46;8.40;99.90
53498;DHT22;39382;47.168;16.008;2023-05-10T05:33:14;8.50;99.90
53498;DHT22;39382;47.168;16.008;2023-05-10T05:35:41;8.60;99.90
53498;DHT22;39382;47.168;16.008;2023-05-10T05:38:26;8.70;99.90
53498;DHT22;39382;47.168;16.008;2023-05-10T05:43:56;8.90;99.90
53498;DHT22;39382;47.168;16.008;2023-05-10T05:46:24;9.00;99.90
53498;DHT22;39382;47.168;16.008;2023-05-10T05:48:56;9.40;99.90
53498;DHT22;39382;47.168;16.008;2023-05-10T05:51:22;9.50;99.90
53498;DHT22;39382;47.168;16.008;2023-05-10T05:53:48;9.70;99.90
53498;DHT22;39382;47.168;16.008;2023-05-10T05:56:13;9.80;99.90
53498;DHT22;39382;47.168;16.008;2023-05-10T05:58:39;9.80;99.90
53498;DHT22;39382;47.168;16.008;2023-05-10T06:01:05;9.90;99.90
53498;DHT22;39382;47.168;16.008;2023-05-10T06:03:30;10.00;99.90
53498;DHT22;39382;47.168;16.008;2023-05-10T06:05:56;10.10;99.90
53498;DHT22;39382;47.168;16.008;2023-05-10T06:08:22;10.30;99.90
53498;DHT22;39382;47.168;16.008;2023-05-10T06:10:47;10.50;99.90
53498;DHT22;39382;47.168;16.008;2023-05-10T06:23:35;11.60;99.90
53498;DHT22;39382;47.168;16.008;2023-05-10T06:26:01;11.90;99.90
53498;DHT22;39382;47.168;16.008;2023-05-10T06:28:27;11.80;99.90
53498;DHT22;39382;47.168;16.008;2023-05-10T06:30:52;11.80;99.90
53498;DHT22;39382;47.168;16.008;2023-05-10T06:33:18;12.10;99.90
53498;DHT22;39382;47.168;16.008;2023-05-10T06:35:44;12.30;99.90
53498;DHT22;39382;47.168;16.008;2023-05-10T06:38:09;12.50;99.90
53498;DHT22;39382;47.168;16.008;2023-05-10T06:40:36;12.70;99.90
53498;DHT22;39382;47.168;16.008;2023-05-10T06:43:01;12.90;99.90
53498;DHT22;39382;47.168;16.008;2023-05-10T06:45:27;13.10;99.90
53498;DHT22;39382;47.168;16.008;2023-05-10T06:47:52;13.20;99.90
53498;DHT22;39382;47.168;16.008;2023-05-10T06:50:18;13.30;99.90
53498;DHT22;39382;47.168;16.008;2023-05-10T06:52:44;13.50;99.90
53498;DHT22;39382;47.168;16.008;2023-05-10T06:55:10;13.70;99.90
53498;DHT22;39382;47.168;16.008;2023-05-10T06:57:36;13.80;99.90
53498;DHT22;39382;47.168;16.008;2023-05-10T07:00:02;14.10;99.90
53498;DHT22;39382;47.168;16.008;2023-05-10T07:02:29;14.30;99.40
53498;DHT22;39382;47.168;16.008;2023-05-10T07:04:55;14.30;99.40
53498;DHT22;39382;47.168;16.008;2023-05-10T07:07:20;14.40;99.30
53498;DHT22;39382;47.168;16.008;2023-05-10T07:09:46;14.60;98.20
53498;DHT22;39382;47.168;16.008;2023-05-10T07:12:12;14.70;98.70
53498;DHT22;39382;47.168;16.008;2023-05-10T07:14:37;15.00;98.50
53498;DHT22;39382;47.168;16.008;2023-05-10T07:17:03;15.60;99.90
53498;DHT22;39382;47.168;16.008;2023-05-10T07:19:29;16.30;98.90
53498;DHT22;39382;47.168;16.008;2023-05-10T07:21:55;16.60;96.40
53498;DHT22;39382;47.168;16.008;2023-05-10T07:24:21;16.90;94.80
53498;DHT22;39382;47.168;16.008;2023-05-10T07:26:46;17.10;93.80
53498;DHT22;39382;47.168;16.008;2023-05-10T07:29:12;17.40;92.40
53498;DHT22;39382;47.168;16.008;2023-05-10T07:31:38;17.50;91.70
53498;DHT22;39382;47.168;16.008;2023-05-10T07:34:03;17.70;91.60
53498;DHT22;39382;47.168;16.008;2023-05-10T07:36:29;17.60;90.00
53498;DHT22;39382;47.168;16.008;2023-05-10T07:38:54;17.70;90.10
53498;DHT22;39382;47.168;16.008;2023-05-10T07:41:21;18.10;89.20
53498;DHT22;39382;47.168;16.008;2023-05-10T07:43:47;18.20;87.30
53498;DHT22;39382;47.168;16.008;2023-05-10T07:46:13;18.10;86.70
53498;DHT22;39382;47.168;16.008;2023-05-10T07:48:39;18.20;86.00
53498;DHT22;39382;47.168;16.008;2023-05-10T07:51:04;18.10;86.20
53498;DHT22;39382;47.168;16.008;2023-05-10T07:53:31;18.30;86.10
53498;DHT22;39382;47.168;16.008;2023-05-10T07:55:58;18.30;84.20
53498;DHT22;39382;47.168;16.008;2023-05-10T07:58:24;18.20;83.80
53498;DHT22;39382;47.168;16.008;2023-05-10T08:00:50;18.10;81.60
53498;DHT22;39382;47.168;16.008;2023-05-10T08:03:16;18.10;83.00
53498;DHT22;39382;47.168;16.008;2023-05-10T08:05:41;18.20;82.30
53498;DHT22;39382;47.168;16.008;2023-05-10T08:08:07;18.20;84.20
53498;DHT22;39382;47.168;16.008;2023-05-10T08:10:33;18.30;81.00
53498;DHT22;39382;47.168;16.008;2023-05-10T08:12:58;18.30;81.30
53498;DHT22;39382;47.168;16.008;2023-05-10T08:15:24;18.30;81.00
53498;DHT22;39382;47.168;16.008;2023-05-10T08:17:51;18.20;80.20
53498;DHT22;39382;47.168;16.008;2023-05-10T08:20:17;18.10;79.30
53498;DHT22;39382;47.168;16.008;2023-05-10T08:22:45;18.10;79.60
53498;DHT22;39382;47.168;16.008;2023-05-10T08:25:11;18.00;78.90
53498;DHT22;39382;47.168;16.008;2023-05-10T08:27:36;18.10;80.30
53498;DHT22;39382;47.168;16.008;2023-05-10T08:30:02;18.20;80.00
53498;DHT22;39382;47.168;16.008;2023-05-10T08:32:28;18.30;79.40
53498;DHT22;39382;47.168;16.008;2023-05-10T08:34:53;18.40;77.30
53498;DHT22;39382;47.168;16.008;2023-05-10T08:37:19;18.40;74.70
53498;DHT22;39382;47.168;16.008;2023-05-10T08:39:45;18.50;74.60
53498;DHT22;39382;47.168;16.008;2023-05-10T08:42:16;18.60;75.30
53498;DHT22;39382;47.168;16.008;2023-05-10T08:44:45;18.40;74.60
53498;DHT22;39382;47.168;16.008;2023-05-10T08:47:15;18.40;74.30
53498;DHT22;39382;47.168;16.008;2023-05-10T08:49:41;18.40;73.70
53498;DHT22;39382;47.168;16.008;2023-05-10T08:52:10;18.50;74.00
53498;DHT22;39382;47.168;16.008;2023-05-10T08:54:38;18.60;72.40
53498;DHT22;39382;47.168;16.008;2023-05-10T08:57:04;18.70;73.20
53498;DHT22;39382;47.168;16.008;2023-05-10T08:59:30;19.00;72.40
53498;DHT22;39382;47.168;16.008;2023-05-10T09:01:59;19.10;71.90
53498;DHT22;39382;47.168;16.008;2023-05-10T09:04:25;19.00;70.50
53498;DHT22;39382;47.168;16.008;2023-05-10T09:06:51;18.90;71.10
53498;DHT22;39382;47.168;16.008;2023-05-10T09:09:17;18.80;70.70
53498;DHT22;39382;47.168;16.008;2023-05-10T09:11:43;18.70;67.40
53498;DHT22;39382;47.168;16.008;2023-05-10T09:14:10;18.60;68.90
53498;DHT22;39382;47.168;16.008;2023-05-10T09:16:37;18.70;71.80
53498;DHT22;39382;47.168;16.008;2023-05-10T09:19:03;18.80;71.80
53498;DHT22;39382;47.168;16.008;2023-05-10T09:21:30;19.00;69.90
53498;DHT22;39382;47.168;16.008;2023-05-10T09:23:56;19.20;69.90
53498;DHT22;39382;47.168;16.008;2023-05-10T09:26:23;19.30;68.00
53498;DHT22;39382;47.168;16.008;2023-05-10T09:29:02;19.20;65.00
53498;DHT22;39382;47.168;16.008;2023-05-10T09:32:03;19.30;66.70
53498;DHT22;39382;47.168;16.008;2023-05-10T09:34:30;19.30;69.10
53498;DHT22;39382;47.168;16.008;2023-05-10T09:36:58;19.40;67.30
53498;DHT22;39382;47.168;16.008;2023-05-10T09:39:36;19.00;67.10
53498;DHT22;39382;47.168;16.008;2023-05-10T09:42:09;19.20;68.90
53498;DHT22;39382;47.168;16.008;2023-05-10T09:44:35;19.30;64.40
53498;DHT22;39382;47.168;16.008;2023-05-10T09:47:02;19.10;68.00
53498;DHT22;39382;47.168;16.008;2023-05-10T09:49:28;19.00;68.40
53498;DHT22;39382;47.168;16.008;2023-05-10T09:52:04;18.80;67.30
53498;DHT22;39382;47.168;16.008;2023-05-10T09:54:32;19.10;68.10
53498;DHT22;39382;47.168;16.008;2023-05-10T09:56:58;18.90;64.50
53498;DHT22;39382;47.168;16.008;2023-05-10T09:59:28;18.90;65.70
53498;DHT22;39382;47.168;16.008;2023-05-10T10:01:58;19.20;64.70
53498;DHT22;39382;47.168;16.008;2023-05-10T10:04:25;19.10;64.00
53498;DHT22;39382;47.168;16.008;2023-05-10T10:07:02;19.00;66.40
53498;DHT22;39382;47.168;16.008;2023-05-10T10:09:28;19.30;67.90
53498;DHT22;39382;47.168;16.008;2023-05-10T10:11:54;19.40;69.70
53498;DHT22;39382;47.168;16.008;2023-05-10T10:14:22;19.70;67.00
53498;DHT22;39382;47.168;16.008;2023-05-10T10:16:49;19.80;62.60
53498;DHT22;39382;47.168;16.008;2023-05-10T10:19:20;19.90;63.40
53498;DHT22;39382;47.168;16.008;2023-05-10T10:21:47;19.90;65.60
53498;DHT22;39382;47.168;16.008;2023-05-10T10:24:12;19.80;66.80
53498;DHT22;39382;47.168;16.008;2023-05-10T10:26:39;19.70;67.00
53498;DHT22;39382;47.168;16.008;2023-05-10T10:34:25;20.20;67.00
53498;DHT22;39382;47.168;16.008;2023-05-10T10:36:52;20.50;65.40
53498;DHT22;39382;47.168;16.008;2023-05-10T10:39:18;20.40;64.80
53498;DHT22;39382;47.168;16.008;2023-05-10T10:41:56;20.40;65.70
53498;DHT22;39382;47.168;16.008;2023-05-10T10:47:06;19.90;66.80
53498;DHT22;39382;47.168;16.008;2023-05-10T10:52:22;20.50;66.80
53498;DHT22;39382;47.168;16.008;2023-05-10T10:57:53;20.30;64.10
53498;DHT22;39382;47.168;16.008;2023-05-10T11:00:31;20.00;64.90
53498;DHT22;39382;47.168;16.008;2023-05-10T11:03:08;20.00;67.10
53498;DHT22;39382;47.168;16.008;2023-05-10T11:05:42;20.10;66.40
53498;DHT22;39382;47.168;16.008;2023-05-10T11:08:28;20.00;63.80
53498;DHT22;39382;47.168;16.008;2023-05-10T11:18:40;20.50;60.70
53498;DHT22;39382;47.168;16.008;2023-05-10T11:21:08;20.30;60.60
53498;DHT22;39382;47.168;16.008;2023-05-10T11:26:09;20.80;61.50
53498;DHT22;39382;47.168;16.008;2023-05-10T11:28:41;21.00;62.20
53498;DHT22;39382;47.168;16.008;2023-05-10T11:31:07;20.50;60.90
53498;DHT22;39382;47.168;16.008;2023-05-10T11:33:43;20.60;62.00
53498;DHT22;39382;47.168;16.008;2023-05-10T11:36:20;20.70;63.70
53498;DHT22;39382;47.168;16.008;2023-05-10T11:38:47;20.80;59.20
53498;DHT22;39382;47.168;16.008;2023-05-10T11:41:13;20.90;61.40
53498;DHT22;39382;47.168;16.008;2023-05-10T11:43:40;21.10;59.70
53498;DHT22;39382;47.168;16.008;2023-05-10T11:46:11;21.10;58.70
53498;DHT22;39382;47.168;16.008;2023-05-10T11:48:39;21.00;58.80
53498;DHT22;39382;47.168;16.008;2023-05-10T11:51:04;21.10;60.50
53498;DHT22;39382;47.168;16.008;2023-05-10T11:53:32;21.40;57.70
53498;DHT22;39382;47.168;16.008;2023-05-10T11:56:06;21.10;56.00
53498;DHT22;39382;47.168;16.008;2023-05-10T11:58:32;20.70;58.30
53498;DHT22;39382;47.168;16.008;2023-05-10T12:00:59;20.40;58.20
53498;DHT22;39382;47.168;16.008;2023-05-10T12:03:26;20.30;59.50
53498;DHT22;39382;47.168;16.008;2023-05-10T12:05:51;20.10;59.50
53498;DHT22;39382;47.168;16.008;2023-05-10T12:08:22;20.00;59.60
53498;DHT22;39382;47.168;16.008;2023-05-10T12:10:48;20.30;57.80
53498;DHT22;39382;47.168;16.008;2023-05-10T12:13:15;20.50;57.70
53498;DHT22;39382;47.168;16.008;2023-05-10T12:15:41;20.30;57.40
53498;DHT22;39382;47.168;16.008;2023-05-10T12:18:11;20.30;58.00
53498;DHT22;39382;47.168;16.008;2023-05-10T12:20:38;20.60;57.90
53498;DHT22;39382;47.168;16.008;2023-05-10T12:23:04;20.40;58.20
53498;DHT22;39382;47.168;16.008;2023-05-10T12:25:35;20.30;58.00
53498;DHT22;39382;47.168;16.008;2023-05-10T12:28:04;20.30;57.20
53498;DHT22;39382;47.168;16.008;2023-05-10T12:30:31;20.50;57.50
53498;DHT22;39382;47.168;16.008;2023-05-10T12:33:14;20.50;56.00
53498;DHT22;39382;47.168;16.008;2023-05-10T12:35:48;20.50;57.20
53498;DHT22;39382;47.168;16.008;2023-05-10T12:38:32;20.70;58.20
53498;DHT22;39382;47.168;16.008;2023-05-10T12:40:59;20.50;57.60
53498;DHT22;39382;47.168;16.008;2023-05-10T12:43:25;20.60;57.40
53498;DHT22;39382;47.168;16.008;2023-05-10T12:45:51;20.70;55.70
53498;DHT22;39382;47.168;16.008;2023-05-10T12:48:17;20.70;55.30
53498;DHT22;39382;47.168;16.008;2023-05-10T12:50:42;20.80;56.10
53498;DHT22;39382;47.168;16.008;2023-05-10T12:53:08;20.70;57.30
53498;DHT22;39382;47.168;16.008;2023-05-10T12:55:34;20.60;57.10
53498;DHT22;39382;47.168;16.008;2023-05-10T12:58:00;20.60;58.40
53498;DHT22;39382;47.168;16.008;2023-05-10T13:00:25;20.50;58.90
53498;DHT22;39382;47.168;16.008;2023-05-10T13:02:51;20.20;59.70
53498;DHT22;39382;47.168;16.008;2023-05-10T13:05:17;20.30;61.10
53498;DHT22;39382;47.168;16.008;2023-05-10T13:07:43;20.50;59.60
53498;DHT22;39382;47.168;16.008;2023-05-10T13:10:09;20.80;58.20
53498;DHT22;39382;47.168;16.008;2023-05-10T13:12:35;21.10;59.70
53498;DHT22;39382;47.168;16.008;2023-05-10T13:15:01;21.10;58.40
53498;DHT22;39382;47.168;16.008;2023-05-10T13:17:28;21.10;58.30
53498;DHT22;39382;47.168;16.008;2023-05-10T13:19:54;20.90;57.80
53498;DHT22;39382;47.168;16.008;2023-05-10T13:22:20;20.60;58.70
53498;DHT22;39382;47.168;16.008;2023-05-10T13:24:45;20.30;58.80
53498;DHT22;39382;47.168;16.008;2023-05-10T13:27:11;20.30;61.10
53498;DHT22;39382;47.168;16.008;2023-05-10T13:29:37;20.20;60.00
53498;DHT22;39382;47.168;16.008;2023-05-10T13:32:03;19.90;61.60
53498;DHT22;39382;47.168;16.008;2023-05-10T13:34:28;19.90;61.60
53498;DHT22;39382;47.168;16.008;2023-05-10T13:36:54;19.80;61.70
53498;DHT22;39382;47.168;16.008;2023-05-10T13:39:21;19.60;62.90
53498;DHT22;39382;47.168;16.008;2023-05-10T13:41:47;19.50;62.40
53498;DHT22;39382;47.168;16.008;2023-05-10T13:44:13;19.60;62.70
53498;DHT22;39382;47.168;16.008;2023-05-10T13:46:40;19.60;63.30
53498;DHT22;39382;47.168;16.008;2023-05-10T13:49:06;19.70;63.10
53498;DHT22;39382;47.168;16.008;2023-05-10T13:51:33;19.60;63.30
53498;DHT22;39382;47.168;16.008;2023-05-10T13:53:59;19.60;63.90
53498;DHT22;39382;47.168;16.008;2023-05-10T13:56:24;19.50;64.30
53498;DHT22;39382;47.168;16.008;2023-05-10T13:58:50;19.40;64.90
53498;DHT22;39382;47.168;16.008;2023-05-10T14:01:16;19.40;65.00
53498;DHT22;39382;47.168;16.008;2023-05-10T14:03:42;19.30;65.10
53498;DHT22;39382;47.168;16.008;2023-05-10T14:06:07;19.20;64.60
53498;DHT22;39382;47.168;16.008;2023-05-10T14:08:34;19.10;64.50
53498;DHT22;39382;47.168;16.008;2023-05-10T14:11:00;19.10;65.10
53498;DHT22;39382;47.168;16.008;2023-05-10T14:13:26;19.00;64.60
53498;DHT22;39382;47.168;16.008;2023-05-10T14:15:53;19.00;66.00
53498;DHT22;39382;47.168;16.008;2023-05-10T14:18:19;18.80;65.00
53498;DHT22;39382;47.168;16.008;2023-05-10T14:20:44;18.80;66.00
53498;DHT22;39382;47.168;16.008;2023-05-10T14:23:10;18.80;65.70
53498;DHT22;39382;47.168;16.008;2023-05-10T14:25:37;18.60;66.20
53498;DHT22;39382;47.168;16.008;2023-05-10T14:28:03;18.80;67.40
53498;DHT22;39382;47.168;16.008;2023-05-10T14:30:29;18.90;67.00
53498;DHT22;39382;47.168;16.008;2023-05-10T14:32:55;19.00;67.40
53498;DHT22;39382;47.168;16.008;2023-05-10T14:35:23;19.20;66.90
53498;DHT22;39382;47.168;16.008;2023-05-10T14:37:49;19.10;66.30
53498;DHT22;39382;47.168;16.008;2023-05-10T14:40:15;19.00;65.90
53498;DHT22;39382;47.168;16.008;2023-05-10T14:42:42;18.90;65.70
53498;DHT22;39382;47.168;16.008;2023-05-10T14:45:09;18.80;65.90
53498;DHT22;39382;47.168;16.008;2023-05-10T14:47:35;18.70;65.50
53498;DHT22;39382;47.168;16.008;2023-05-10T14:50:00;18.60;66.50
53498;DHT22;39382;47.168;16.008;2023-05-10T14:52:26;18.70;66.20
53498;DHT22;39382;47.168;16.008;2023-05-10T14:54:52;18.60;66.00
53498;DHT22;39382;47.168;16.008;2023-05-10T14:57:17;18.40;67.00
53498;DHT22;39382;47.168;16.008;2023-05-10T14:59:43;18.50;67.90
53498;DHT22;39382;47.168;16.008;2023-05-10T15:02:09;18.50;67.20
53498;DHT22;39382;47.168;16.008;2023-05-10T15:04:35;18.40;67.50
53498;DHT22;39382;47.168;16.008;2023-05-10T15:07:01;18.30;67.50
53498;DHT22;39382;47.168;16.008;2023-05-10T15:09:27;18.30;66.80
53498;DHT22;39382;47.168;16.008;2023-05-10T15:11:53;18.40;67.40
53498;DHT22;39382;47.168;16.008;2023-05-10T15:14:19;18.50;67.30
53498;DHT22;39382;47.168;16.008;2023-05-10T15:16:44;18.50;68.10
53498;DHT22;39382;47.168;16.008;2023-05-10T15:19:10;18.50;67.10
53498;DHT22;39382;47.168;16.008;2023-05-10T15:21:35;18.50;67.50
53498;DHT22;39382;47.168;16.008;2023-05-10T15:24:07;18.50;67.30
53498;DHT22;39382;47.168;16.008;2023-05-10T15:26:33;18.60;66.40
53498;DHT22;39382;47.168;16.008;2023-05-10T15:28:59;18.50;65.70
53498;DHT22;39382;47.168;16.008;2023-05-10T15:31:25;18.40;65.90
53498;DHT22;39382;47.168;16.008;2023-05-10T15:33:50;18.50;67.20
53498;DHT22;39382;47.168;16.008;2023-05-10T15:36:16;18.50;66.60
53498;DHT22;39382;47.168;16.008;2023-05-10T15:38:43;18.50;65.50
53498;DHT22;39382;47.168;16.008;2023-05-10T15:41:09;18.50;66.80
53498;DHT22;39382;47.168;16.008;2023-05-10T15:43:34;18.50;66.60
53498;DHT22;39382;47.168;16.008;2023-05-10T15:46:00;18.40;66.60
53498;DHT22;39382;47.168;16.008;2023-05-10T15:48:26;18.40;67.10
53498;DHT22;39382;47.168;16.008;2023-05-10T15:50:52;18.30;67.40
53498;DHT22;39382;47.168;16.008;2023-05-10T15:53:18;18.40;67.60
53498;DHT22;39382;47.168;16.008;2023-05-10T15:55:43;18.40;67.20
53498;DHT22;39382;47.168;16.008;2023-05-10T15:58:09;18.40;65.90
53498;DHT22;39382;47.168;16.008;2023-05-10T16:00:35;18.30;65.30
53498;DHT22;39382;47.168;16.008;2023-05-10T16:03:01;18.20;64.60
53498;DHT22;39382;47.168;16.008;2023-05-10T16:05:26;18.20;65.00
53498;DHT22;39382;47.168;16.008;2023-05-10T16:07:56;18.10;65.60
53498;DHT22;39382;47.168;16.008;2023-05-10T16:10:21;18.20;65.30
53498;DHT22;39382;47.168;16.008;2023-05-10T16:12:47;18.10;65.40
53498;DHT22;39382;47.168;16.008;2023-05-10T16:15:13;18.10;65.80
53498;DHT22;39382;47.168;16.008;2023-05-10T16:17:39;18.10;66.60
53498;DHT22;39382;47.168;16.008;2023-05-10T16:20:05;18.10;66.70
53498;DHT22;39382;47.168;16.008;2023-05-10T16:22:31;18.00;67.00